sensor_id;sensor_type;location;lat;lon;timestamp;P1;durP1;ratioP1;P2;durP2;ratioP2
8626;SDS011;4351;51.422;6.794;2023-02-28T00:01:13;10.50;;;6.60;;
8626;SDS011;4351;51.422;6.794;2023-02-28T00:03:41;10.97;;;6.40;;
8626;SDS011;4351;51.422;6.794;2023-02-28T00:06:10;9.73;;;6.03;;
8626;SDS011;4351;51.422;6.794;2023-02-28T00:08:38;9.87;;;5.70;;
8626;SDS011;4351;51.422;6.794;2023-02-28T00:11:08;9.77;;;5.77;;
8626;SDS011;4351;51.422;6.794;2023-02-28T00:13:38;7.90;;;5.60;;
8626;SDS011;4351;51.422;6.794;2023-02-28T00:16:09;12.63;;;6.23;;
8626;SDS011;4351;51.422;6.794;2023-02-28T00:18:40;9.67;;;6.00;;
8626;SDS011;4351;51.422;6.794;2023-02-28T00:21:09;9.47;;;5.73;;
8626;SDS011;4351;51.422;6.794;2023-02-28T00:23:36;10.23;;;5.63;;
8626;SDS011;4351;51.422;6.794;2023-02-28T00:26:04;10.60;;;5.53;;
8626;SDS011;4351;51.422;6.794;2023-02-28T00:28:32;11.03;;;6.37;;
8626;SDS011;4351;51.422;6.794;2023-02-28T00:31:00;9.40;;;6.23;;
8626;SDS011;4351;51.422;6.794;2023-02-28T00:33:28;10.20;;;6.20;;
8626;SDS011;4351;51.422;6.794;2023-02-28T00:36:05;9.50;;;5.93;;
8626;SDS011;4351;51.422;6.794;2023-02-28T00:38:37;12.30;;;6.40;;
8626;SDS011;4351;51.422;6.794;2023-02-28T00:41:06;10.67;;;5.97;;
8626;SDS011;4351;51.422;6.794;2023-02-28T00:43:35;7.87;;;5.87;;
8626;SDS011;4351;51.422;6.794;2023-02-28T00:46:04;8.70;;;5.80;;
8626;SDS011;4351;51.422;6.794;2023-02-28T00:48:33;13.40;;;6.60;;
8626;SDS011;4351;51.422;6.794;2023-02-28T00:51:00;10.13;;;5.60;;
8626;SDS011;4351;51.422;6.794;2023-02-28T00:53:31;11.07;;;6.20;;
8626;SDS011;4351;51.422;6.794;2023-02-28T00:56:00;10.03;;;6.80;;
8626;SDS011;4351;51.422;6.794;2023-02-28T00:58:28;10.40;;;6.67;;
8626;SDS011;4351;51.422;6.794;2023-02-28T01:00:56;8.47;;;6.17;;
8626;SDS011;4351;51.422;6.794;2023-02-28T01:03:24;10.33;;;6.40;;
8626;SDS011;4351;51.422;6.794;2023-02-28T01:05:52;9.90;;;6.40;;
8626;SDS011;4351;51.422;6.794;2023-02-28T01:08:20;9.87;;;6.60;;
8626;SDS011;4351;51.422;6.794;2023-02-28T01:10:51;10.37;;;6.20;;
8626;SDS011;4351;51.422;6.794;2023-02-28T01:13:19;10.23;;;6.37;;
8626;SDS011;4351;51.422;6.794;2023-02-28T01:15:49;9.97;;;5.67;;
8626;SDS011;4351;51.422;6.794;2023-02-28T01:18:19;10.30;;;5.90;;
8626;SDS011;4351;51.422;6.794;2023-02-28T01:20:48;7.90;;;6.10;;
8626;SDS011;4351;51.422;6.794;2023-02-28T01:23:18;10.13;;;6.20;;
8626;SDS011;4351;51.422;6.794;2023-02-28T01:25:46;10.47;;;7.03;;
8626;SDS011;4351;51.422;6.794;2023-02-28T01:28:15;8.93;;;6.03;;
8626;SDS011;4351;51.422;6.794;2023-02-28T01:30:46;14.57;;;6.17;;
8626;SDS011;4351;51.422;6.794;2023-02-28T01:33:15;9.13;;;5.93;;
8626;SDS011;4351;51.422;6.794;2023-02-28T01:35:43;8.87;;;5.90;;
8626;SDS011;4351;51.422;6.794;2023-02-28T01:38:11;9.30;;;6.30;;
8626;SDS011;4351;51.422;6.794;2023-02-28T01:40:48;8.90;;;5.90;;
8626;SDS011;4351;51.422;6.794;2023-02-28T01:43:21;10.60;;;5.83;;
8626;SDS011;4351;51.422;6.794;2023-02-28T01:45:50;10.30;;;5.93;;
8626;SDS011;4351;51.422;6.794;2023-02-28T01:48:19;10.30;;;6.03;;
8626;SDS011;4351;51.422;6.794;2023-02-28T01:50:52;8.63;;;5.47;;
8626;SDS011;4351;51.422;6.794;2023-02-28T01:53:23;9.03;;;5.73;;
8626;SDS011;4351;51.422;6.794;2023-02-28T01:55:55;11.43;;;5.10;;
8626;SDS011;4351;51.422;6.794;2023-02-28T01:58:25;10.83;;;5.67;;
8626;SDS011;4351;51.422;6.794;2023-02-28T02:00:53;8.73;;;5.27;;
8626;SDS011;4351;51.422;6.794;2023-02-28T02:03:21;9.33;;;5.70;;
8626;SDS011;4351;51.422;6.794;2023-02-28T02:05:49;9.07;;;5.50;;
8626;SDS011;4351;51.422;6.794;2023-02-28T02:08:19;8.67;;;5.10;;
8626;SDS011;4351;51.422;6.794;2023-02-28T02:10:51;10.53;;;5.40;;
8626;SDS011;4351;51.422;6.794;2023-02-28T02:13:30;9.23;;;5.17;;
8626;SDS011;4351;51.422;6.794;2023-02-28T02:16:15;8.70;;;5.00;;
8626;SDS011;4351;51.422;6.794;2023-02-28T02:18:53;10.13;;;4.90;;
8626;SDS011;4351;51.422;6.794;2023-02-28T02:24:57;9.10;;;5.00;;
8626;SDS011;4351;51.422;6.794;2023-02-28T02:30:45;7.57;;;4.73;;
8626;SDS011;4351;51.422;6.794;2023-02-28T02:33:28;7.90;;;4.90;;
8626;SDS011;4351;51.422;6.794;2023-02-28T02:36:14;8.43;;;4.93;;
8626;SDS011;4351;51.422;6.794;2023-02-28T02:38:49;9.27;;;5.27;;
8626;SDS011;4351;51.422;6.794;2023-02-28T02:41:23;7.87;;;5.00;;
8626;SDS011;4351;51.422;6.794;2023-02-28T02:43:56;8.10;;;4.50;;
8626;SDS011;4351;51.422;6.794;2023-02-28T02:46:30;9.60;;;4.97;;
8626;SDS011;4351;51.422;6.794;2023-02-28T02:49:02;9.83;;;5.10;;
8626;SDS011;4351;51.422;6.794;2023-02-28T02:51:35;7.43;;;4.80;;
8626;SDS011;4351;51.422;6.794;2023-02-28T02:54:07;6.83;;;4.57;;
8626;SDS011;4351;51.422;6.794;2023-02-28T02:56:39;7.17;;;4.30;;
8626;SDS011;4351;51.422;6.794;2023-02-28T02:59:11;8.00;;;4.23;;
8626;SDS011;4351;51.422;6.794;2023-02-28T03:01:41;7.07;;;4.57;;
8626;SDS011;4351;51.422;6.794;2023-02-28T03:04:11;11.00;;;4.63;;
8626;SDS011;4351;51.422;6.794;2023-02-28T03:06:44;7.47;;;5.00;;
8626;SDS011;4351;51.422;6.794;2023-02-28T03:09:12;12.63;;;6.97;;
8626;SDS011;4351;51.422;6.794;2023-02-28T03:11:40;12.40;;;8.57;;
8626;SDS011;4351;51.422;6.794;2023-02-28T03:14:17;11.30;;;8.10;;
8626;SDS011;4351;51.422;6.794;2023-02-28T03:17:03;9.17;;;6.73;;
8626;SDS011;4351;51.422;6.794;2023-02-28T03:19:45;8.27;;;5.97;;
8626;SDS011;4351;51.422;6.794;2023-02-28T03:22:36;8.80;;;5.40;;
8626;SDS011;4351;51.422;6.794;2023-02-28T03:25:17;10.17;;;5.40;;
8626;SDS011;4351;51.422;6.794;2023-02-28T03:27:49;8.73;;;4.73;;
8626;SDS011;4351;51.422;6.794;2023-02-28T03:30:27;9.93;;;4.67;;
8626;SDS011;4351;51.422;6.794;2023-02-28T03:33:00;7.73;;;4.53;;
8626;SDS011;4351;51.422;6.794;2023-02-28T03:35:33;6.83;;;4.60;;
8626;SDS011;4351;51.422;6.794;2023-02-28T03:38:06;8.40;;;4.70;;
8626;SDS011;4351;51.422;6.794;2023-02-28T03:40:41;10.17;;;4.80;;
8626;SDS011;4351;51.422;6.794;2023-02-28T03:43:14;8.37;;;4.80;;
8626;SDS011;4351;51.422;6.794;2023-02-28T03:45:50;9.10;;;4.37;;
8626;SDS011;4351;51.422;6.794;2023-02-28T03:48:19;7.57;;;4.47;;
8626;SDS011;4351;51.422;6.794;2023-02-28T03:50:52;8.67;;;4.63;;
8626;SDS011;4351;51.422;6.794;2023-02-28T03:53:25;6.87;;;4.40;;
8626;SDS011;4351;51.422;6.794;2023-02-28T03:55:55;10.13;;;4.10;;
8626;SDS011;4351;51.422;6.794;2023-02-28T03:58:28;5.60;;;3.80;;
8626;SDS011;4351;51.422;6.794;2023-02-28T04:01:03;9.43;;;4.33;;
8626;SDS011;4351;51.422;6.794;2023-02-28T04:03:35;6.27;;;4.10;;
8626;SDS011;4351;51.422;6.794;2023-02-28T04:06:03;5.40;;;3.90;;
8626;SDS011;4351;51.422;6.794;2023-02-28T04:08:34;8.53;;;4.70;;
8626;SDS011;4351;51.422;6.794;2023-02-28T04:11:03;8.50;;;4.27;;
8626;SDS011;4351;51.422;6.794;2023-02-28T04:13:35;10.00;;;5.97;;
8626;SDS011;4351;51.422;6.794;2023-02-28T04:16:06;10.50;;;5.07;;
8626;SDS011;4351;51.422;6.794;2023-02-28T04:18:49;9.30;;;5.00;;
8626;SDS011;4351;51.422;6.794;2023-02-28T04:21:17;9.13;;;5.03;;
8626;SDS011;4351;51.422;6.794;2023-02-28T04:23:48;7.07;;;4.27;;
8626;SDS011;4351;51.422;6.794;2023-02-28T04:26:16;7.83;;;4.87;;
8626;SDS011;4351;51.422;6.794;2023-02-28T04:28:44;9.00;;;6.03;;
8626;SDS011;4351;51.422;6.794;2023-02-28T04:31:12;7.83;;;4.57;;
8626;SDS011;4351;51.422;6.794;2023-02-28T04:33:39;9.70;;;4.83;;
8626;SDS011;4351;51.422;6.794;2023-02-28T04:36:08;7.77;;;4.63;;
8626;SDS011;4351;51.422;6.794;2023-02-28T04:38:37;9.93;;;4.60;;
8626;SDS011;4351;51.422;6.794;2023-02-28T04:41:07;9.70;;;5.03;;
8626;SDS011;4351;51.422;6.794;2023-02-28T04:43:35;8.23;;;4.53;;
8626;SDS011;4351;51.422;6.794;2023-02-28T04:46:03;8.40;;;4.30;;
8626;SDS011;4351;51.422;6.794;2023-02-28T04:48:33;7.87;;;4.50;;
8626;SDS011;4351;51.422;6.794;2023-02-28T04:51:02;8.17;;;4.20;;
8626;SDS011;4351;51.422;6.794;2023-02-28T04:53:30;8.07;;;4.83;;
8626;SDS011;4351;51.422;6.794;2023-02-28T04:55:58;8.93;;;4.73;;
8626;SDS011;4351;51.422;6.794;2023-02-28T04:58:27;9.93;;;4.73;;
8626;SDS011;4351;51.422;6.794;2023-02-28T05:01:00;8.33;;;4.30;;
8626;SDS011;4351;51.422;6.794;2023-02-28T05:03:29;7.03;;;4.47;;
8626;SDS011;4351;51.422;6.794;2023-02-28T05:05:57;7.33;;;4.50;;
8626;SDS011;4351;51.422;6.794;2023-02-28T05:08:25;8.27;;;4.10;;
8626;SDS011;4351;51.422;6.794;2023-02-28T05:10:55;7.77;;;4.67;;
8626;SDS011;4351;51.422;6.794;2023-02-28T05:13:23;6.93;;;4.40;;
8626;SDS011;4351;51.422;6.794;2023-02-28T05:15:53;7.50;;;4.57;;
8626;SDS011;4351;51.422;6.794;2023-02-28T05:18:21;8.07;;;4.40;;
8626;SDS011;4351;51.422;6.794;2023-02-28T05:20:49;6.80;;;4.47;;
8626;SDS011;4351;51.422;6.794;2023-02-28T05:23:17;8.23;;;4.60;;
8626;SDS011;4351;51.422;6.794;2023-02-28T05:25:47;8.90;;;4.57;;
8626;SDS011;4351;51.422;6.794;2023-02-28T05:28:14;8.30;;;4.70;;
8626;SDS011;4351;51.422;6.794;2023-02-28T05:30:42;8.00;;;4.37;;
8626;SDS011;4351;51.422;6.794;2023-02-28T05:33:12;9.80;;;4.50;;
8626;SDS011;4351;51.422;6.794;2023-02-28T05:35:40;7.30;;;4.47;;
8626;SDS011;4351;51.422;6.794;2023-02-28T05:38:09;9.00;;;4.30;;
8626;SDS011;4351;51.422;6.794;2023-02-28T05:40:37;6.87;;;4.43;;
8626;SDS011;4351;51.422;6.794;2023-02-28T05:43:07;5.13;;;3.90;;
8626;SDS011;4351;51.422;6.794;2023-02-28T05:45:38;8.33;;;4.27;;
8626;SDS011;4351;51.422;6.794;2023-02-28T05:48:05;6.80;;;3.90;;
8626;SDS011;4351;51.422;6.794;2023-02-28T05:50:35;6.20;;;3.97;;
8626;SDS011;4351;51.422;6.794;2023-02-28T05:53:03;7.83;;;4.33;;
8626;SDS011;4351;51.422;6.794;2023-02-28T05:55:31;7.27;;;3.90;;
8626;SDS011;4351;51.422;6.794;2023-02-28T05:57:59;7.77;;;4.33;;
8626;SDS011;4351;51.422;6.794;2023-02-28T06:00:27;8.60;;;3.97;;
8626;SDS011;4351;51.422;6.794;2023-02-28T06:02:55;9.53;;;4.00;;
8626;SDS011;4351;51.422;6.794;2023-02-28T06:05:26;7.03;;;3.63;;
8626;SDS011;4351;51.422;6.794;2023-02-28T06:07:55;7.77;;;4.27;;
8626;SDS011;4351;51.422;6.794;2023-02-28T06:10:23;10.10;;;4.20;;
8626;SDS011;4351;51.422;6.794;2023-02-28T06:12:51;6.63;;;3.80;;
8626;SDS011;4351;51.422;6.794;2023-02-28T06:15:19;7.17;;;3.87;;
8626;SDS011;4351;51.422;6.794;2023-02-28T06:17:47;5.70;;;3.70;;
8626;SDS011;4351;51.422;6.794;2023-02-28T06:20:25;7.73;;;4.00;;
8626;SDS011;4351;51.422;6.794;2023-02-28T06:22:57;7.03;;;3.63;;
8626;SDS011;4351;51.422;6.794;2023-02-28T06:25:26;6.73;;;3.70;;
8626;SDS011;4351;51.422;6.794;2023-02-28T06:27:55;9.77;;;4.03;;
8626;SDS011;4351;51.422;6.794;2023-02-28T06:30:23;7.40;;;4.03;;
8626;SDS011;4351;51.422;6.794;2023-02-28T06:32:53;14.17;;;4.00;;
8626;SDS011;4351;51.422;6.794;2023-02-28T06:35:21;7.23;;;3.50;;
8626;SDS011;4351;51.422;6.794;2023-02-28T06:37:49;7.57;;;3.90;;
8626;SDS011;4351;51.422;6.794;2023-02-28T06:40:18;7.43;;;3.33;;
8626;SDS011;4351;51.422;6.794;2023-02-28T06:42:46;8.63;;;4.00;;
8626;SDS011;4351;51.422;6.794;2023-02-28T06:45:14;5.43;;;3.10;;
8626;SDS011;4351;51.422;6.794;2023-02-28T06:47:42;10.87;;;3.60;;
8626;SDS011;4351;51.422;6.794;2023-02-28T06:50:10;10.93;;;3.77;;
8626;SDS011;4351;51.422;6.794;2023-02-28T06:52:39;7.10;;;3.17;;
8626;SDS011;4351;51.422;6.794;2023-02-28T06:55:07;9.37;;;4.00;;
8626;SDS011;4351;51.422;6.794;2023-02-28T06:57:37;7.20;;;3.70;;
8626;SDS011;4351;51.422;6.794;2023-02-28T07:00:06;6.80;;;3.77;;
8626;SDS011;4351;51.422;6.794;2023-02-28T07:02:35;9.63;;;4.00;;
8626;SDS011;4351;51.422;6.794;2023-02-28T07:05:04;7.37;;;3.83;;
8626;SDS011;4351;51.422;6.794;2023-02-28T07:07:32;8.13;;;4.23;;
8626;SDS011;4351;51.422;6.794;2023-02-28T07:10:02;12.97;;;4.70;;
8626;SDS011;4351;51.422;6.794;2023-02-28T07:12:31;8.17;;;3.83;;
8626;SDS011;4351;51.422;6.794;2023-02-28T07:15:00;7.77;;;3.70;;
8626;SDS011;4351;51.422;6.794;2023-02-28T07:17:29;10.47;;;3.70;;
8626;SDS011;4351;51.422;6.794;2023-02-28T07:19:57;5.40;;;3.23;;
8626;SDS011;4351;51.422;6.794;2023-02-28T07:22:25;11.20;;;4.17;;
8626;SDS011;4351;51.422;6.794;2023-02-28T07:24:52;10.23;;;3.80;;
8626;SDS011;4351;51.422;6.794;2023-02-28T07:27:20;7.97;;;3.80;;
8626;SDS011;4351;51.422;6.794;2023-02-28T07:29:52;8.10;;;3.73;;
8626;SDS011;4351;51.422;6.794;2023-02-28T07:32:22;4.37;;;3.43;;
8626;SDS011;4351;51.422;6.794;2023-02-28T07:34:50;9.37;;;3.57;;
8626;SDS011;4351;51.422;6.794;2023-02-28T07:37:18;7.77;;;3.83;;
8626;SDS011;4351;51.422;6.794;2023-02-28T07:39:47;8.40;;;3.70;;
8626;SDS011;4351;51.422;6.794;2023-02-28T07:42:14;8.80;;;3.63;;
8626;SDS011;4351;51.422;6.794;2023-02-28T07:44:43;9.97;;;3.60;;
8626;SDS011;4351;51.422;6.794;2023-02-28T07:47:10;8.07;;;3.90;;
8626;SDS011;4351;51.422;6.794;2023-02-28T07:49:40;5.20;;;3.60;;
8626;SDS011;4351;51.422;6.794;2023-02-28T07:52:08;8.23;;;3.97;;
8626;SDS011;4351;51.422;6.794;2023-02-28T07:54:37;6.67;;;3.40;;
8626;SDS011;4351;51.422;6.794;2023-02-28T07:57:05;6.80;;;3.87;;
8626;SDS011;4351;51.422;6.794;2023-02-28T07:59:34;9.43;;;3.97;;
8626;SDS011;4351;51.422;6.794;2023-02-28T08:02:02;4.47;;;3.13;;
8626;SDS011;4351;51.422;6.794;2023-02-28T08:04:31;5.60;;;3.70;;
8626;SDS011;4351;51.422;6.794;2023-02-28T08:07:01;6.97;;;3.60;;
8626;SDS011;4351;51.422;6.794;2023-02-28T08:09:29;4.67;;;3.20;;
8626;SDS011;4351;51.422;6.794;2023-02-28T08:11:57;4.33;;;2.90;;
8626;SDS011;4351;51.422;6.794;2023-02-28T08:14:25;6.47;;;3.27;;
8626;SDS011;4351;51.422;6.794;2023-02-28T08:16:53;5.30;;;3.00;;
8626;SDS011;4351;51.422;6.794;2023-02-28T08:19:20;5.83;;;3.10;;
8626;SDS011;4351;51.422;6.794;2023-02-28T08:21:48;6.57;;;3.07;;
8626;SDS011;4351;51.422;6.794;2023-02-28T08:24:17;4.30;;;3.23;;
8626;SDS011;4351;51.422;6.794;2023-02-28T08:26:45;5.43;;;3.30;;
8626;SDS011;4351;51.422;6.794;2023-02-28T08:29:13;7.63;;;3.00;;
8626;SDS011;4351;51.422;6.794;2023-02-28T08:31:41;5.63;;;3.57;;
8626;SDS011;4351;51.422;6.794;2023-02-28T08:34:11;4.67;;;3.27;;
8626;SDS011;4351;51.422;6.794;2023-02-28T08:36:41;5.73;;;3.17;;
8626;SDS011;4351;51.422;6.794;2023-02-28T08:39:11;4.77;;;3.53;;
8626;SDS011;4351;51.422;6.794;2023-02-28T08:41:41;6.33;;;3.40;;
8626;SDS011;4351;51.422;6.794;2023-02-28T08:44:10;3.93;;;2.93;;
8626;SDS011;4351;51.422;6.794;2023-02-28T08:46:38;7.97;;;3.07;;
8626;SDS011;4351;51.422;6.794;2023-02-28T08:49:06;6.37;;;2.93;;
8626;SDS011;4351;51.422;6.794;2023-02-28T08:51:35;4.83;;;2.90;;
8626;SDS011;4351;51.422;6.794;2023-02-28T08:54:04;5.77;;;3.10;;
8626;SDS011;4351;51.422;6.794;2023-02-28T08:56:31;8.17;;;3.30;;
8626;SDS011;4351;51.422;6.794;2023-02-28T08:59:01;4.80;;;3.03;;
8626;SDS011;4351;51.422;6.794;2023-02-28T09:01:29;4.77;;;2.80;;
8626;SDS011;4351;51.422;6.794;2023-02-28T09:03:58;5.60;;;2.97;;
8626;SDS011;4351;51.422;6.794;2023-02-28T09:06:28;8.47;;;3.83;;
8626;SDS011;4351;51.422;6.794;2023-02-28T09:08:56;5.40;;;2.93;;
8626;SDS011;4351;51.422;6.794;2023-02-28T09:11:27;7.03;;;2.97;;
8626;SDS011;4351;51.422;6.794;2023-02-28T09:13:57;7.87;;;3.07;;
8626;SDS011;4351;51.422;6.794;2023-02-28T09:16:26;3.97;;;2.53;;
8626;SDS011;4351;51.422;6.794;2023-02-28T09:18:54;4.27;;;2.80;;
8626;SDS011;4351;51.422;6.794;2023-02-28T09:21:22;4.93;;;2.80;;
8626;SDS011;4351;51.422;6.794;2023-02-28T09:23:50;5.10;;;2.53;;
8626;SDS011;4351;51.422;6.794;2023-02-28T09:26:19;2.53;;;2.33;;
8626;SDS011;4351;51.422;6.794;2023-02-28T09:28:49;4.17;;;2.60;;
8626;SDS011;4351;51.422;6.794;2023-02-28T09:31:23;4.10;;;2.60;;
8626;SDS011;4351;51.422;6.794;2023-02-28T09:33:54;3.77;;;2.53;;
8626;SDS011;4351;51.422;6.794;2023-02-28T09:36:24;5.03;;;2.83;;
8626;SDS011;4351;51.422;6.794;2023-02-28T09:39:09;4.77;;;2.40;;
8626;SDS011;4351;51.422;6.794;2023-02-28T09:41:38;3.10;;;2.47;;
8626;SDS011;4351;51.422;6.794;2023-02-28T09:44:15;3.80;;;2.70;;
8626;SDS011;4351;51.422;6.794;2023-02-28T09:46:49;4.47;;;2.50;;
8626;SDS011;4351;51.422;6.794;2023-02-28T09:49:23;4.00;;;2.57;;
8626;SDS011;4351;51.422;6.794;2023-02-28T09:51:57;4.00;;;2.67;;
8626;SDS011;4351;51.422;6.794;2023-02-28T09:54:27;3.63;;;2.20;;
8626;SDS011;4351;51.422;6.794;2023-02-28T09:56:58;3.03;;;2.57;;
8626;SDS011;4351;51.422;6.794;2023-02-28T09:59:31;4.07;;;2.60;;
8626;SDS011;4351;51.422;6.794;2023-02-28T10:02:11;6.33;;;2.80;;
8626;SDS011;4351;51.422;6.794;2023-02-28T10:04:50;4.60;;;2.50;;
8626;SDS011;4351;51.422;6.794;2023-02-28T10:07:25;3.87;;;2.53;;
8626;SDS011;4351;51.422;6.794;2023-02-28T10:10:14;4.17;;;2.70;;
8626;SDS011;4351;51.422;6.794;2023-02-28T10:12:48;4.50;;;2.57;;
8626;SDS011;4351;51.422;6.794;2023-02-28T10:15:23;3.73;;;2.10;;
8626;SDS011;4351;51.422;6.794;2023-02-28T10:17:57;5.37;;;2.40;;
8626;SDS011;4351;51.422;6.794;2023-02-28T10:20:43;4.27;;;2.40;;
8626;SDS011;4351;51.422;6.794;2023-02-28T10:23:13;6.80;;;2.13;;
8626;SDS011;4351;51.422;6.794;2023-02-28T10:25:48;3.17;;;2.10;;
8626;SDS011;4351;51.422;6.794;2023-02-28T10:28:25;2.37;;;2.00;;
8626;SDS011;4351;51.422;6.794;2023-02-28T10:30:55;2.43;;;1.73;;
8626;SDS011;4351;51.422;6.794;2023-02-28T10:33:25;4.00;;;2.30;;
8626;SDS011;4351;51.422;6.794;2023-02-28T10:35:58;2.13;;;1.70;;
8626;SDS011;4351;51.422;6.794;2023-02-28T10:38:27;3.17;;;2.13;;
8626;SDS011;4351;51.422;6.794;2023-02-28T10:41:03;4.77;;;2.20;;
8626;SDS011;4351;51.422;6.794;2023-02-28T10:43:33;2.47;;;1.80;;
8626;SDS011;4351;51.422;6.794;2023-02-28T10:46:03;3.93;;;1.70;;
8626;SDS011;4351;51.422;6.794;2023-02-28T10:48:37;3.73;;;1.80;;
8626;SDS011;4351;51.422;6.794;2023-02-28T10:51:08;2.70;;;1.80;;
8626;SDS011;4351;51.422;6.794;2023-02-28T10:53:39;2.87;;;2.07;;
8626;SDS011;4351;51.422;6.794;2023-02-28T10:56:27;3.93;;;1.80;;
8626;SDS011;4351;51.422;6.794;2023-02-28T10:58:56;4.40;;;2.33;;
8626;SDS011;4351;51.422;6.794;2023-02-28T11:01:34;3.73;;;2.00;;
8626;SDS011;4351;51.422;6.794;2023-02-28T11:04:03;3.50;;;2.10;;
8626;SDS011;4351;51.422;6.794;2023-02-28T11:06:51;2.60;;;2.00;;
8626;SDS011;4351;51.422;6.794;2023-02-28T11:09:27;4.67;;;1.90;;
8626;SDS011;4351;51.422;6.794;2023-02-28T11:11:57;3.10;;;1.90;;
8626;SDS011;4351;51.422;6.794;2023-02-28T11:14:26;3.43;;;2.00;;
8626;SDS011;4351;51.422;6.794;2023-02-28T11:16:56;4.30;;;2.00;;
8626;SDS011;4351;51.422;6.794;2023-02-28T11:19:31;3.00;;;1.70;;
8626;SDS011;4351;51.422;6.794;2023-02-28T11:22:06;2.10;;;1.47;;
8626;SDS011;4351;51.422;6.794;2023-02-28T11:24:35;3.77;;;1.73;;
8626;SDS011;4351;51.422;6.794;2023-02-28T11:27:10;3.43;;;1.90;;
8626;SDS011;4351;51.422;6.794;2023-02-28T11:29:52;2.33;;;1.70;;
8626;SDS011;4351;51.422;6.794;2023-02-28T11:32:21;2.27;;;1.70;;
8626;SDS011;4351;51.422;6.794;2023-02-28T11:34:59;1.73;;;1.43;;
8626;SDS011;4351;51.422;6.794;2023-02-28T11:37:31;4.33;;;1.80;;
8626;SDS011;4351;51.422;6.794;2023-02-28T11:39:59;3.47;;;2.07;;
8626;SDS011;4351;51.422;6.794;2023-02-28T11:42:32;2.40;;;1.90;;
8626;SDS011;4351;51.422;6.794;2023-02-28T11:45:16;4.77;;;1.67;;
8626;SDS011;4351;51.422;6.794;2023-02-28T11:47:52;4.63;;;1.97;;
8626;SDS011;4351;51.422;6.794;2023-02-28T11:50:33;3.63;;;1.67;;
8626;SDS011;4351;51.422;6.794;2023-02-28T11:53:16;5.13;;;2.00;;
8626;SDS011;4351;51.422;6.794;2023-02-28T11:55:53;3.60;;;1.77;;
8626;SDS011;4351;51.422;6.794;2023-02-28T11:58:33;3.80;;;1.90;;
8626;SDS011;4351;51.422;6.794;2023-02-28T12:01:13;5.03;;;2.00;;
8626;SDS011;4351;51.422;6.794;2023-02-28T12:03:56;3.57;;;1.80;;
8626;SDS011;4351;51.422;6.794;2023-02-28T12:06:33;3.80;;;1.90;;
8626;SDS011;4351;51.422;6.794;2023-02-28T12:09:16;3.67;;;2.13;;
8626;SDS011;4351;51.422;6.794;2023-02-28T12:11:58;3.20;;;2.00;;
8626;SDS011;4351;51.422;6.794;2023-02-28T12:17:32;3.77;;;1.80;;
8626;SDS011;4351;51.422;6.794;2023-02-28T12:20:13;2.53;;;1.90;;
8626;SDS011;4351;51.422;6.794;2023-02-28T12:22:53;5.47;;;1.90;;
8626;SDS011;4351;51.422;6.794;2023-02-28T12:25:39;4.23;;;2.33;;
8626;SDS011;4351;51.422;6.794;2023-02-28T12:28:20;3.83;;;2.30;;
8626;SDS011;4351;51.422;6.794;2023-02-28T12:30:53;3.57;;;2.50;;
8626;SDS011;4351;51.422;6.794;2023-02-28T12:33:27;4.97;;;2.20;;
8626;SDS011;4351;51.422;6.794;2023-02-28T12:36:03;3.17;;;2.13;;
8626;SDS011;4351;51.422;6.794;2023-02-28T12:38:39;2.57;;;2.30;;
8626;SDS011;4351;51.422;6.794;2023-02-28T12:41:14;3.77;;;2.03;;
8626;SDS011;4351;51.422;6.794;2023-02-28T12:43:47;3.43;;;2.23;;
8626;SDS011;4351;51.422;6.794;2023-02-28T12:46:23;3.10;;;2.03;;
8626;SDS011;4351;51.422;6.794;2023-02-28T12:49:00;3.93;;;2.03;;
8626;SDS011;4351;51.422;6.794;2023-02-28T12:51:33;4.57;;;2.10;;
8626;SDS011;4351;51.422;6.794;2023-02-28T12:54:05;4.83;;;2.63;;
8626;SDS011;4351;51.422;6.794;2023-02-28T12:56:44;5.60;;;2.57;;
8626;SDS011;4351;51.422;6.794;2023-02-28T12:59:19;3.40;;;2.40;;
8626;SDS011;4351;51.422;6.794;2023-02-28T13:01:57;3.23;;;2.40;;
8626;SDS011;4351;51.422;6.794;2023-02-28T13:04:43;4.07;;;2.33;;
8626;SDS011;4351;51.422;6.794;2023-02-28T13:07:36;4.00;;;2.30;;
8626;SDS011;4351;51.422;6.794;2023-02-28T13:10:20;2.80;;;2.40;;
8626;SDS011;4351;51.422;6.794;2023-02-28T13:12:51;3.93;;;2.20;;
8626;SDS011;4351;51.422;6.794;2023-02-28T13:15:23;4.60;;;2.30;;
8626;SDS011;4351;51.422;6.794;2023-02-28T13:17:55;3.37;;;2.57;;
8626;SDS011;4351;51.422;6.794;2023-02-28T13:20:25;4.83;;;2.60;;
8626;SDS011;4351;51.422;6.794;2023-02-28T13:23:02;2.93;;;2.03;;
8626;SDS011;4351;51.422;6.794;2023-02-28T13:34:41;4.17;;;2.60;;
8626;SDS011;4351;51.422;6.794;2023-02-28T13:37:32;5.97;;;2.73;;
8626;SDS011;4351;51.422;6.794;2023-02-28T13:43:03;3.57;;;2.63;;
8626;SDS011;4351;51.422;6.794;2023-02-28T13:45:35;3.43;;;2.83;;
8626;SDS011;4351;51.422;6.794;2023-02-28T13:48:05;2.73;;;2.23;;
8626;SDS011;4351;51.422;6.794;2023-02-28T13:50:46;3.67;;;2.80;;
8626;SDS011;4351;51.422;6.794;2023-02-28T13:53:24;3.80;;;3.07;;
8626;SDS011;4351;51.422;6.794;2023-02-28T13:56:07;4.33;;;3.00;;
8626;SDS011;4351;51.422;6.794;2023-02-28T13:58:48;4.27;;;3.10;;
8626;SDS011;4351;51.422;6.794;2023-02-28T14:01:23;5.60;;;3.20;;
8626;SDS011;4351;51.422;6.794;2023-02-28T14:04:09;3.70;;;3.27;;
8626;SDS011;4351;51.422;6.794;2023-02-28T14:06:52;4.73;;;3.07;;
8626;SDS011;4351;51.422;6.794;2023-02-28T14:09:23;4.00;;;3.60;;
8626;SDS011;4351;51.422;6.794;2023-02-28T14:11:53;4.77;;;3.13;;
8626;SDS011;4351;51.422;6.794;2023-02-28T14:17:23;6.17;;;3.33;;
8626;SDS011;4351;51.422;6.794;2023-02-28T14:19:53;5.70;;;3.50;;
8626;SDS011;4351;51.422;6.794;2023-02-28T14:22:31;4.67;;;3.10;;
8626;SDS011;4351;51.422;6.794;2023-02-28T14:25:16;6.43;;;3.50;;
8626;SDS011;4351;51.422;6.794;2023-02-28T14:27:54;3.73;;;3.30;;
8626;SDS011;4351;51.422;6.794;2023-02-28T14:33:41;4.07;;;3.17;;
8626;SDS011;4351;51.422;6.794;2023-02-28T14:36:23;3.73;;;3.43;;
8626;SDS011;4351;51.422;6.794;2023-02-28T14:38:57;4.47;;;3.50;;
8626;SDS011;4351;51.422;6.794;2023-02-28T14:41:29;4.23;;;3.70;;
8626;SDS011;4351;51.422;6.794;2023-02-28T14:44:02;4.03;;;3.17;;
8626;SDS011;4351;51.422;6.794;2023-02-28T14:46:40;4.23;;;3.30;;
8626;SDS011;4351;51.422;6.794;2023-02-28T14:49:13;5.70;;;3.30;;
8626;SDS011;4351;51.422;6.794;2023-02-28T14:51:45;4.47;;;3.13;;
8626;SDS011;4351;51.422;6.794;2023-02-28T14:54:16;3.43;;;3.13;;
8626;SDS011;4351;51.422;6.794;2023-02-28T14:56:50;6.93;;;3.20;;
8626;SDS011;4351;51.422;6.794;2023-02-28T14:59:26;3.93;;;3.43;;
8626;SDS011;4351;51.422;6.794;2023-02-28T15:02:15;4.00;;;3.60;;
8626;SDS011;4351;51.422;6.794;2023-02-28T15:04:51;5.60;;;3.73;;
8626;SDS011;4351;51.422;6.794;2023-02-28T15:07:20;5.77;;;3.37;;
8626;SDS011;4351;51.422;6.794;2023-02-28T15:12:53;5.20;;;3.47;;
8626;SDS011;4351;51.422;6.794;2023-02-28T15:15:23;6.43;;;3.97;;
8626;SDS011;4351;51.422;6.794;2023-02-28T15:18:14;5.87;;;3.30;;
8626;SDS011;4351;51.422;6.794;2023-02-28T15:20:49;4.77;;;3.40;;
8626;SDS011;4351;51.422;6.794;2023-02-28T15:23:18;5.13;;;3.13;;
8626;SDS011;4351;51.422;6.794;2023-02-28T15:25:49;4.43;;;2.90;;
8626;SDS011;4351;51.422;6.794;2023-02-28T15:28:20;4.43;;;2.97;;
8626;SDS011;4351;51.422;6.794;2023-02-28T15:30:51;4.47;;;3.70;;
8626;SDS011;4351;51.422;6.794;2023-02-28T15:33:23;4.43;;;3.37;;
8626;SDS011;4351;51.422;6.794;2023-02-28T15:36:02;4.80;;;3.13;;
8626;SDS011;4351;51.422;6.794;2023-02-28T15:38:37;3.80;;;3.40;;
8626;SDS011;4351;51.422;6.794;2023-02-28T15:41:21;4.20;;;3.60;;
8626;SDS011;4351;51.422;6.794;2023-02-28T15:46:54;6.13;;;3.40;;
8626;SDS011;4351;51.422;6.794;2023-02-28T15:49:24;5.00;;;3.83;;
8626;SDS011;4351;51.422;6.794;2023-02-28T15:51:53;3.90;;;3.50;;
8626;SDS011;4351;51.422;6.794;2023-02-28T15:54:27;4.87;;;3.90;;
8626;SDS011;4351;51.422;6.794;2023-02-28T15:57:00;5.13;;;3.80;;
8626;SDS011;4351;51.422;6.794;2023-02-28T15:59:35;4.93;;;3.57;;
8626;SDS011;4351;51.422;6.794;2023-02-28T16:02:12;4.97;;;3.37;;
8626;SDS011;4351;51.422;6.794;2023-02-28T16:04:57;5.07;;;3.30;;
8626;SDS011;4351;51.422;6.794;2023-02-28T16:07:31;6.57;;;4.00;;
8626;SDS011;4351;51.422;6.794;2023-02-28T16:10:00;4.70;;;3.37;;
8626;SDS011;4351;51.422;6.794;2023-02-28T16:12:30;4.30;;;3.13;;
8626;SDS011;4351;51.422;6.794;2023-02-28T16:15:01;4.80;;;3.60;;
8626;SDS011;4351;51.422;6.794;2023-02-28T16:17:31;3.57;;;3.17;;
8626;SDS011;4351;51.422;6.794;2023-02-28T16:20:11;3.90;;;3.50;;